createdAt,value
2022-12-27T00:02:12.994Z,95.79
2022-12-27T00:12:20.174Z,95.97
2022-12-27T00:22:27.656Z,95.92
2022-12-27T00:32:35.040Z,95.91
2022-12-27T00:42:42.177Z,96.04
2022-12-27T00:52:48.428Z,96.14
2022-12-27T01:13:01.524Z,96.39
2022-12-27T01:23:08.708Z,96.68
2022-12-27T01:33:15.901Z,96.61
2022-12-27T01:43:22.141Z,96.51
2022-12-27T01:53:34.850Z,96.65
2022-12-27T02:03:46.156Z,96.49
2022-12-27T02:13:53.401Z,96.67
2022-12-27T02:24:30.213Z,96.51
2022-12-27T02:34:41.739Z,96.35
2022-12-27T02:45:05.568Z,96.20
2022-12-27T02:55:16.948Z,96.11
2022-12-27T03:05:21.770Z,95.94
2022-12-27T03:15:53.299Z,95.97
2022-12-27T03:26:02.937Z,95.99
2022-12-27T03:36:25.907Z,95.91
2022-12-27T03:46:35.488Z,95.97
2022-12-27T03:56:41.790Z,95.98
2022-12-27T04:06:49.817Z,96.15
2022-12-27T04:17:14.567Z,96.09
2022-12-27T04:27:39.107Z,96.26
2022-12-27T04:37:45.068Z,95.15
2022-12-27T04:48:09.887Z,94.69
2022-12-27T04:58:16.973Z,94.65
2022-12-27T05:08:42.841Z,94.47
2022-12-27T05:18:50.116Z,94.48
2022-12-27T05:28:59.660Z,94.13
2022-12-27T05:39:07.099Z,94.12
2022-12-27T05:49:14.079Z,94.08
2022-12-27T05:59:21.528Z,94.10
2022-12-27T06:09:28.751Z,94.04
2022-12-27T06:19:36.495Z,94.00
2022-12-27T06:29:42.216Z,93.94
2022-12-27T06:39:49.594Z,93.93
2022-12-27T06:49:56.264Z,94.07
2022-12-27T07:00:03.760Z,94.09
2022-12-27T07:10:12.034Z,94.09
2022-12-27T07:20:18.410Z,94.13
2022-12-27T07:30:24.267Z,94.16
2022-12-27T07:40:31.504Z,94.17
2022-12-27T07:50:38.818Z,94.30
2022-12-27T08:00:46.111Z,94.22
2022-12-27T08:10:53.416Z,94.15
2022-12-27T08:20:59.696Z,93.86
2022-12-27T08:31:09.328Z,94.01
2022-12-27T08:41:21.027Z,92.92
2022-12-27T08:51:35.850Z,92.70
2022-12-27T09:01:47.956Z,92.40
2022-12-27T09:11:55.261Z,92.17
2022-12-27T09:22:03.737Z,91.92
2022-12-27T09:32:10.943Z,91.64
2022-12-27T09:43:01.996Z,91.09
2022-12-27T09:52:52.842Z,91.04
2022-12-27T10:03:05.232Z,90.51
2022-12-27T10:13:18.211Z,89.90
2022-12-27T10:23:25.735Z,89.26
2022-12-27T10:33:35.543Z,88.52
2022-12-27T10:43:45.660Z,88.38
2022-12-27T10:54:02.362Z,87.69
2022-12-27T11:04:19.810Z,86.85
2022-12-27T11:14:28.250Z,85.42
2022-12-27T11:24:35.467Z,84.57
2022-12-27T11:34:47.170Z,84.32
2022-12-27T11:44:54.215Z,83.42
2022-12-27T11:55:14.552Z,82.99
2022-12-27T12:05:46.845Z,82.28
2022-12-27T12:16:28.734Z,82.67
2022-12-27T12:26:38.407Z,82.09
2022-12-27T12:36:52.715Z,81.33
2022-12-27T12:46:58.515Z,81.28
2022-12-27T12:57:10.841Z,81.52
2022-12-27T13:07:26.010Z,81.34
2022-12-27T13:17:37.360Z,81.63
2022-12-27T13:27:43.215Z,82.02
2022-12-27T13:37:54.085Z,81.65
2022-12-27T13:48:13.951Z,81.69
2022-12-27T13:58:34.007Z,81.58
2022-12-27T14:09:18.831Z,81.50
2022-12-27T14:19:40.482Z,81.39
2022-12-27T14:30:21.217Z,81.84
2022-12-27T14:41:00.114Z,82.02
2022-12-27T14:51:59.248Z,81.77
2022-12-27T15:02:02.036Z,81.97
2022-12-27T15:12:10.458Z,82.06
2022-12-27T15:22:19.043Z,81.91
2022-12-27T15:32:27.864Z,81.92
2022-12-27T15:42:43.324Z,82.20
2022-12-27T15:53:12.841Z,82.07
2022-12-27T16:03:31.878Z,82.00
2022-12-27T16:13:51.397Z,82.26
2022-12-27T16:24:01.171Z,82.55
2022-12-27T16:34:11.678Z,82.64
2022-12-27T16:44:26.896Z,82.81
2022-12-27T16:54:32.709Z,82.91
2022-12-27T17:04:59.307Z,83.09
2022-12-27T17:15:13.719Z,83.09
2022-12-27T17:25:22.889Z,83.26
2022-12-27T17:35:31.972Z,83.29
2022-12-27T17:45:44.045Z,83.31
2022-12-27T17:56:17.941Z,83.39
2022-12-27T18:06:25.448Z,83.57
2022-12-27T18:16:33.665Z,83.73
2022-12-27T18:26:42.507Z,83.76
2022-12-27T18:36:53.072Z,83.55
2022-12-27T18:47:01.703Z,83.69
2022-12-27T18:57:13.372Z,83.87
2022-12-27T19:07:20.892Z,83.77
2022-12-27T19:17:31.457Z,83.91
2022-12-27T19:27:38.698Z,83.97
2022-12-27T19:37:46.161Z,83.96
2022-12-27T19:47:55.771Z,84.18
2022-12-27T19:58:03.403Z,84.15
2022-12-27T20:08:16.333Z,84.00
2022-12-27T20:18:25.119Z,84.35
2022-12-27T20:28:31.181Z,84.52
2022-12-27T20:38:39.279Z,84.66
2022-12-27T20:48:48.294Z,84.82
2022-12-27T20:58:55.675Z,84.96
2022-12-27T21:09:03.259Z,84.98
2022-12-27T21:19:10.904Z,85.18
2022-12-27T21:29:19.499Z,85.39
2022-12-27T21:39:26.738Z,85.34
2022-12-27T21:49:35.173Z,85.46
2022-12-27T21:59:41.379Z,85.41
2022-12-27T22:09:48.670Z,85.80
2022-12-27T22:19:55.787Z,85.79
2022-12-27T22:30:03.715Z,85.85
2022-12-27T22:40:30.974Z,85.82
2022-12-27T22:50:39.624Z,85.93
2022-12-27T23:00:46.764Z,86.15
2022-12-27T23:10:53.947Z,86.25
2022-12-27T23:21:21.863Z,86.40
2022-12-27T23:31:29.520Z,86.43
2022-12-27T23:41:36.055Z,86.33
